Time;durP1;ratioP1;P1;durP2;ratioP2;P2;SDS_P1;SDS_P2;PMS_P1;PMS_P2;Temp;Humidity;BMP_temperature;BMP_pressure;BME280_temperature;BME280_humidity;BME280_pressure;Samples;Min_cycle;Max_cycle;Signal;HPM_P1;HPM_P2
2022/10/10 00:01:23;;;;;;;;;;;;;;;20.76;49.36;101187.97;5113035;27;20034;-38
2022/10/10 00:03:48;;;;;;;;;;;;;;;20.77;49.22;101183.28;5132381;27;20046;-38
2022/10/10 00:06:14;;;;;;;;;;;;;;;20.76;49.18;101182.44;5136077;27;19935;-38
2022/10/10 00:08:40;;;;;;;;;;;;;;;20.76;49.12;101178.84;5135660;27;20430;-37
2022/10/10 00:11:06;;;;;;;;;;;;;;;20.77;49.34;101178.56;5109220;28;19970;-37
2022/10/10 00:13:31;;;;;;;;;;;;;;;20.77;49.23;101174.97;5114037;27;20013;-37
2022/10/10 00:15:57;;;;;;;;;;;;;;;20.77;49.27;101186.88;5113218;27;20006;-37
2022/10/10 00:18:22;;;;;;;;;;;;;;;20.76;49.27;101176.91;5115545;27;19923;-38
2022/10/10 00:20:50;;;;;;;;;;;;;;;20.77;49.11;101169.44;5135607;27;19977;-38
2022/10/10 00:23:15;;;;;;;;;;;;;;;20.77;49.21;101174.97;5112772;27;20387;-37
2022/10/10 00:25:41;;;;;;;;;;;;;;;20.76;49.19;101187.97;5135911;27;19930;-37
2022/10/10 00:28:06;;;;;;;;;;;;;;;20.76;49.12;101185.19;5134848;27;19935;-38
2022/10/10 00:30:32;;;;;;;;;;;;;;;20.76;49.05;101181.59;5135618;27;19924;-37
2022/10/10 00:32:58;;;;;;;;;;;;;;;20.77;49.21;101181.34;5132703;27;19945;-38
2022/10/10 00:35:24;;;;;;;;;;;;;;;20.76;49.10;101176.91;5134418;27;19923;-38
2022/10/10 00:37:49;;;;;;;;;;;;;;;20.77;49.07;101178.56;5128227;27;20321;-38
2022/10/10 00:40:15;;;;;;;;;;;;;;;20.76;49.22;101174.13;5134390;27;19958;-38
2022/10/10 00:42:40;;;;;;;;;;;;;;;20.77;49.19;101177.75;5134628;27;20382;-38
2022/10/10 00:45:26;;;;;;;;;;;;;;;20.76;49.18;101179.66;5130314;27;19931;-38
2022/10/10 00:47:52;;;;;;;;;;;;;;;20.76;49.15;101176.91;5117029;27;20378;-38
2022/10/10 00:50:18;;;;;;;;;;;;;;;20.77;49.27;101180.53;5116552;27;20048;-38
2022/10/10 00:52:44;;;;;;;;;;;;;;;20.76;49.09;101176.91;5134684;27;20086;-37
2022/10/10 00:55:10;;;;;;;;;;;;;;;20.77;49.25;101175.81;5117361;27;19927;-38
2022/10/10 00:57:35;;;;;;;;;;;;;;;20.76;49.28;101165.81;5114895;27;20358;-38
2022/10/10 01:00:01;;;;;;;;;;;;;;;20.76;49.22;101163.06;5135533;27;19930;-38
2022/10/10 01:02:26;;;;;;;;;;;;;;;20.77;49.16;101167.50;5112427;27;19946;-37
2022/10/10 01:04:52;;;;;;;;;;;;;;;20.76;49.35;101157.53;5133732;27;19937;-38
2022/10/10 01:07:18;;;;;;;;;;;;;;;20.77;49.31;101153.66;5128226;27;19942;-38
2022/10/10 01:09:44;;;;;;;;;;;;;;;20.77;49.26;101147.31;5131145;27;20018;-38
2022/10/10 01:12:13;;;;;;;;;;;;;;;20.77;49.12;101147.31;5117758;27;19945;-37
2022/10/10 01:14:41;;;;;;;;;;;;;;;20.76;49.22;101152.00;5133481;27;20009;-38
2022/10/10 01:17:11;;;;;;;;;;;;;;;20.76;49.23;101146.44;5132411;27;20101;-38
2022/10/10 01:19:57;;;;;;;;;;;;;;;20.76;49.27;101151.16;5113510;27;19967;-38
2022/10/10 01:22:28;;;;;;;;;;;;;;;20.77;49.24;101145.38;5117445;27;20059;-38
2022/10/10 01:25:14;;;;;;;;;;;;;;;20.77;49.10;101145.38;5134497;27;19955;-38
2022/10/10 01:27:41;;;;;;;;;;;;;;;20.77;49.13;101144.53;5123827;27;20377;-38
2022/10/10 01:30:09;;;;;;;;;;;;;;;20.77;49.04;101142.59;5119859;27;20025;-38
2022/10/10 01:32:38;;;;;;;;;;;;;;;20.76;49.09;101135.38;5122684;27;20018;-38
2022/10/10 01:35:24;;;;;;;;;;;;;;;20.77;49.15;101139.00;5119629;27;20020;-38
2022/10/10 01:37:53;;;;;;;;;;;;;;;20.77;49.03;101137.06;5125988;27;20018;-37
2022/10/10 01:40:22;;;;;;;;;;;;;;;20.76;49.10;101132.63;5136618;27;19967;-38
2022/10/10 01:42:50;;;;;;;;;;;;;;;20.77;49.21;101125.16;5114591;27;20025;-37
2022/10/10 01:45:16;;;;;;;;;;;;;;;20.77;49.04;101123.22;5115972;27;19932;-38
2022/10/10 01:47:42;;;;;;;;;;;;;;;20.77;49.05;101119.63;5135434;27;20303;-38
2022/10/10 01:50:10;;;;;;;;;;;;;;;20.77;49.17;101125.16;5135215;27;20207;-38
2022/10/10 01:52:46;;;;;;;;;;;;;;;20.77;49.11;101126.00;5141442;27;19966;-38
2022/10/10 01:55:19;;;;;;;;;;;;;;;20.76;49.19;101115.19;5137576;27;20026;-38
2022/10/10 01:57:50;;;;;;;;;;;;;;;20.77;49.05;101122.41;5140350;27;20411;-38
2022/10/10 02:00:16;;;;;;;;;;;;;;;20.76;49.04;101113.25;5136582;27;19969;-38
2022/10/10 02:02:58;;;;;;;;;;;;;;;20.77;49.03;101119.63;5132283;27;19928;-38
2022/10/10 02:05:43;;;;;;;;;;;;;;;20.77;49.14;101116.88;5131494;27;19992;-38
2022/10/10 02:08:10;;;;;;;;;;;;;;;20.76;49.05;101112.41;5122304;27;19965;-38
2022/10/10 02:10:39;;;;;;;;;;;;;;;20.77;49.12;101114.91;5135641;27;19958;-38
2022/10/10 02:13:04;;;;;;;;;;;;;;;20.76;49.06;101110.47;5132966;27;20419;-37
2022/10/10 02:15:34;;;;;;;;;;;;;;;20.76;49.00;101101.34;5136538;27;19937;-38
2022/10/10 02:17:59;;;;;;;;;;;;;;;20.77;49.05;101105.78;5137995;27;19972;-38
2022/10/10 02:20:25;;;;;;;;;;;;;;;20.76;49.11;101107.69;5133730;27;20286;-38
2022/10/10 02:22:51;;;;;;;;;;;;;;;20.76;49.01;101101.34;5117000;27;19969;-38
2022/10/10 02:25:21;;;;;;;;;;;;;;;20.76;49.21;101106.88;5140020;27;19923;-38
2022/10/10 02:27:50;;;;;;;;;;;;;;;20.76;49.12;101102.16;5116548;27;19932;-42
2022/10/10 02:30:15;;;;;;;;;;;;;;;20.77;49.05;101100.25;5140330;27;20614;-42
2022/10/10 02:32:46;;;;;;;;;;;;;;;20.77;49.22;101103.03;5140203;27;19931;-42
2022/10/10 02:35:17;;;;;;;;;;;;;;;20.77;49.20;101094.72;5116153;27;20013;-42
2022/10/10 02:37:42;;;;;;;;;;;;;;;20.76;49.05;101091.09;5132229;27;20026;-42
2022/10/10 02:40:08;;;;;;;;;;;;;;;20.76;49.20;101088.31;5136351;27;19923;-37
2022/10/10 02:42:34;;;;;;;;;;;;;;;20.77;48.97;101089.19;5142112;27;19923;-36
2022/10/10 02:45:00;;;;;;;;;;;;;;;20.77;49.09;101083.66;5128651;27;19923;-37
2022/10/10 02:47:25;;;;;;;;;;;;;;;20.77;48.97;101089.19;5136642;27;19957;-37
2022/10/10 02:49:51;;;;;;;;;;;;;;;20.76;49.14;101082.78;5132944;27;19924;-36
2022/10/10 02:52:16;;;;;;;;;;;;;;;20.77;49.09;101081.69;5133531;27;19969;-36
2022/10/10 02:54:42;;;;;;;;;;;;;;;20.75;49.07;101075.63;5134704;27;20008;-36
2022/10/10 02:57:08;;;;;;;;;;;;;;;20.77;49.00;101072.56;5117375;27;19927;-37
2022/10/10 02:59:33;;;;;;;;;;;;;;;20.77;49.11;101078.13;5136276;27;19931;-37
2022/10/10 03:01:59;;;;;;;;;;;;;;;20.77;49.18;101078.13;5115470;27;20366;-36
2022/10/10 03:04:24;;;;;;;;;;;;;;;20.77;49.04;101076.16;5133402;27;20367;-36
2022/10/10 03:06:50;;;;;;;;;;;;;;;20.77;49.01;101072.56;5136427;27;20001;-37
2022/10/10 03:09:15;;;;;;;;;;;;;;;20.77;49.10;101069.81;5136964;27;19924;-36
2022/10/10 03:11:41;;;;;;;;;;;;;;;20.78;49.08;101074.22;5134033;27;19939;-36
2022/10/10 03:14:06;;;;;;;;;;;;;;;20.77;49.06;101067.03;5133675;27;19923;-36
2022/10/10 03:16:32;;;;;;;;;;;;;;;20.77;49.01;101067.03;5135104;27;19938;-37
2022/10/10 03:18:58;;;;;;;;;;;;;;;20.77;49.06;101064.28;5135811;27;19949;-36
2022/10/10 03:21:23;;;;;;;;;;;;;;;20.78;48.97;101068.69;5135793;27;19935;-37
2022/10/10 03:23:49;;;;;;;;;;;;;;;20.77;49.18;101069.81;5132444;27;19930;-37
2022/10/10 03:26:14;;;;;;;;;;;;;;;20.78;49.14;101068.69;5137717;27;19945;-37
2022/10/10 03:28:40;;;;;;;;;;;;;;;20.77;48.96;101065.09;5138960;27;19923;-36
2022/10/10 03:31:05;;;;;;;;;;;;;;;20.77;49.03;101065.09;5136796;27;19924;-36
2022/10/10 03:33:31;;;;;;;;;;;;;;;20.78;49.00;101075.03;5135381;27;19923;-36
2022/10/10 03:35:56;;;;;;;;;;;;;;;20.78;49.03;101074.22;5133284;27;19927;-36
2022/10/10 03:38:22;;;;;;;;;;;;;;;20.78;49.10;101060.38;5134330;27;20315;-36
2022/10/10 03:40:47;;;;;;;;;;;;;;;20.77;48.99;101065.09;5133194;27;19927;-36
2022/10/10 03:43:13;;;;;;;;;;;;;;;20.77;49.04;101067.88;5126262;27;19931;-36
2022/10/10 03:45:40;;;;;;;;;;;;;;;20.77;48.99;101059.56;5133861;27;20287;-36
2022/10/10 03:48:06;;;;;;;;;;;;;;;20.78;49.09;101065.91;5117405;27;19960;-37
2022/10/10 03:50:32;;;;;;;;;;;;;;;20.78;49.01;101068.69;5135289;27;19927;-36
2022/10/10 03:52:57;;;;;;;;;;;;;;;20.78;49.10;101065.91;5131732;27;20420;-36
2022/10/10 03:55:23;;;;;;;;;;;;;;;20.77;49.11;101058.75;5134305;27;19931;-36
2022/10/10 03:57:48;;;;;;;;;;;;;;;20.77;49.10;101059.56;5120941;27;19924;-36
2022/10/10 04:00:14;;;;;;;;;;;;;;;20.77;49.01;101056.78;5136945;27;20684;-36
2022/10/10 04:02:39;;;;;;;;;;;;;;;20.77;48.91;101056.78;5131878;27;19927;-36
2022/10/10 04:05:05;;;;;;;;;;;;;;;20.78;48.88;101052.09;5129990;27;19928;-36
2022/10/10 04:07:31;;;;;;;;;;;;;;;20.76;49.03;101044.03;5132067;27;20317;-36
2022/10/10 04:09:56;;;;;;;;;;;;;;;20.77;49.05;101053.19;5112654;27;19951;-37
2022/10/10 04:12:22;;;;;;;;;;;;;;;20.77;49.11;101051.25;5133879;27;19961;-37
2022/10/10 04:14:47;;;;;;;;;;;;;;;20.76;48.97;101046.00;5129804;27;19942;-36
2022/10/10 04:17:13;;;;;;;;;;;;;;;20.77;49.08;101055.97;5131689;27;20268;-37
2022/10/10 04:19:38;;;;;;;;;;;;;;;20.76;48.89;101060.66;5136470;27;19931;-36
2022/10/10 04:22:04;;;;;;;;;;;;;;;20.77;48.95;101065.09;5134898;27;19927;-37
2022/10/10 04:24:36;;;;;;;;;;;;;;;20.76;49.01;101063.41;5116843;27;19927;-36
2022/10/10 04:27:01;;;;;;;;;;;;;;;20.77;49.14;101047.66;5133641;27;19930;-37
2022/10/10 04:29:27;;;;;;;;;;;;;;;20.77;48.96;101058.75;5138190;27;19923;-37
2022/10/10 04:31:52;;;;;;;;;;;;;;;20.77;48.93;101061.50;5134997;27;19923;-36
2022/10/10 04:34:18;;;;;;;;;;;;;;;20.76;48.96;101057.06;5132534;27;20264;-36
2022/10/10 04:36:43;;;;;;;;;;;;;;;20.77;48.92;101054.03;5135661;27;19924;-37
2022/10/10 04:39:09;;;;;;;;;;;;;;;20.77;48.89;101053.19;5134631;27;19923;-36
2022/10/10 04:41:34;;;;;;;;;;;;;;;20.77;49.08;101053.19;5137547;27;20017;-37
2022/10/10 04:44:00;;;;;;;;;;;;;;;20.76;48.93;101046.81;5128124;27;19923;-37
2022/10/10 04:46:26;;;;;;;;;;;;;;;20.77;48.94;101047.66;5132564;27;19941;-37
2022/10/10 04:48:51;;;;;;;;;;;;;;;20.77;48.93;101051.25;5130326;27;20036;-37
2022/10/10 04:51:17;;;;;;;;;;;;;;;20.77;48.98;101053.19;5129682;27;19927;-37
2022/10/10 04:53:43;;;;;;;;;;;;;;;20.76;49.14;101046.81;5113866;27;19932;-36
2022/10/10 04:56:15;;;;;;;;;;;;;;;20.77;48.95;101053.19;5118573;27;19945;-36
2022/10/10 04:58:40;;;;;;;;;;;;;;;20.77;48.84;101042.13;5137396;27;19927;-37
2022/10/10 05:01:06;;;;;;;;;;;;;;;20.77;48.94;101051.25;5132607;27;19931;-37
2022/10/10 05:03:32;;;;;;;;;;;;;;;20.76;49.08;101044.03;5135245;27;19923;-37
2022/10/10 05:05:57;;;;;;;;;;;;;;;20.77;48.91;101053.19;5138389;27;19968;-36
2022/10/10 05:08:23;;;;;;;;;;;;;;;20.76;48.88;101057.88;5135517;27;20430;-37
2022/10/10 05:10:50;;;;;;;;;;;;;;;20.76;49.03;101046.81;5134703;27;20028;-36
2022/10/10 05:13:15;;;;;;;;;;;;;;;20.77;48.87;101053.19;5119574;27;20039;-36
2022/10/10 05:15:41;;;;;;;;;;;;;;;20.78;48.84;101052.09;5139527;27;19930;-37
2022/10/10 05:18:07;;;;;;;;;;;;;;;20.77;48.88;101048.50;5122161;27;19974;-36
2022/10/10 05:20:32;;;;;;;;;;;;;;;20.78;48.99;101043.78;5133292;27;19923;-36
2022/10/10 05:22:58;;;;;;;;;;;;;;;20.77;48.88;101044.91;5137275;27;19927;-36
2022/10/10 05:25:24;;;;;;;;;;;;;;;20.78;48.91;101050.13;5139046;27;19942;-36
2022/10/10 05:27:49;;;;;;;;;;;;;;;20.77;49.08;101047.66;5124049;28;19927;-36
2022/10/10 05:30:15;;;;;;;;;;;;;;;20.77;48.87;101045.72;5123614;27;19942;-37
2022/10/10 05:32:40;;;;;;;;;;;;;;;20.77;49.02;101039.38;5142134;27;19945;-36
2022/10/10 05:35:06;;;;;;;;;;;;;;;20.77;48.99;101048.50;5123726;27;19930;-37
2022/10/10 05:37:32;;;;;;;;;;;;;;;20.77;49.03;101044.91;5136920;27;19924;-36
2022/10/10 05:39:57;;;;;;;;;;;;;;;20.77;48.89;101054.03;5120704;27;19924;-37
2022/10/10 05:42:23;;;;;;;;;;;;;;;20.77;48.85;101047.66;5117141;27;19923;-37
2022/10/10 05:44:49;;;;;;;;;;;;;;;20.77;48.91;101048.50;5138623;27;19931;-37
2022/10/10 05:47:14;;;;;;;;;;;;;;;20.78;48.99;101049.31;5137208;27;19928;-36
2022/10/10 05:49:40;;;;;;;;;;;;;;;20.77;49.00;101050.44;5115296;28;20006;-36
2022/10/10 05:52:06;;;;;;;;;;;;;;;20.77;48.96;101053.19;5135218;27;19923;-36
2022/10/10 05:54:31;;;;;;;;;;;;;;;20.77;49.03;101054.03;5116973;27;19924;-36
2022/10/10 05:56:57;;;;;;;;;;;;;;;20.76;48.93;101049.59;5136968;27;19923;-36
2022/10/10 05:59:22;;;;;;;;;;;;;;;20.76;48.87;101052.34;5133873;27;19977;-37
2022/10/10 06:01:48;;;;;;;;;;;;;;;20.76;48.97;101049.59;5134272;27;19927;-36
2022/10/10 06:04:13;;;;;;;;;;;;;;;20.77;48.83;101048.50;5137464;27;21099;-37
2022/10/10 06:06:39;;;;;;;;;;;;;;;20.76;48.87;101051.53;5116705;27;19931;-36
2022/10/10 06:09:05;;;;;;;;;;;;;;;20.77;49.04;101050.44;5134396;27;20234;-36
2022/10/10 06:11:30;;;;;;;;;;;;;;;20.76;49.01;101055.13;5135826;27;19952;-37
2022/10/10 06:13:56;;;;;;;;;;;;;;;20.77;48.88;101058.75;5134129;27;19934;-36
2022/10/10 06:16:22;;;;;;;;;;;;;;;20.77;48.93;101056.78;5134888;27;20286;-36
2022/10/10 06:18:48;;;;;;;;;;;;;;;20.77;48.87;101058.75;5117420;27;19935;-36
2022/10/10 06:21:13;;;;;;;;;;;;;;;20.77;48.91;101064.28;5131506;27;19931;-36
2022/10/10 06:23:39;;;;;;;;;;;;;;;20.78;49.07;101068.69;5113986;28;20267;-36
2022/10/10 06:26:04;;;;;;;;;;;;;;;20.76;48.80;101065.38;5138366;27;19969;-36
2022/10/10 06:28:30;;;;;;;;;;;;;;;20.76;48.91;101063.41;5145378;27;19931;-37
2022/10/10 06:30:59;;;;;;;;;;;;;;;20.76;48.87;101063.41;5138774;27;20383;-36
2022/10/10 06:33:25;;;;;;;;;;;;;;;20.76;48.79;101071.72;5136093;27;20005;-36
2022/10/10 06:35:51;;;;;;;;;;;;;;;20.77;48.91;101073.41;5134403;27;20400;-37
2022/10/10 06:38:17;;;;;;;;;;;;;;;20.78;48.82;101069.50;5117274;27;19931;-37
2022/10/10 06:40:42;;;;;;;;;;;;;;;20.77;48.92;101075.34;5137657;27;20351;-36
2022/10/10 06:43:10;;;;;;;;;;;;;;;20.77;49.02;101078.13;5115926;28;20346;-36
2022/10/10 06:45:37;;;;;;;;;;;;;;;20.77;48.88;101078.94;5114193;27;20005;-36
2022/10/10 06:48:03;;;;;;;;;;;;;;;20.76;49.02;101071.72;5116024;27;19924;-37
2022/10/10 06:50:29;;;;;;;;;;;;;;;20.76;48.88;101077.25;5114163;27;19985;-37
2022/10/10 06:52:54;;;;;;;;;;;;;;;20.77;48.85;101076.16;5135479;27;19930;-36
2022/10/10 06:55:20;;;;;;;;;;;;;;;20.77;48.93;101078.13;5134213;27;19927;-36
2022/10/10 06:57:45;;;;;;;;;;;;;;;20.76;48.91;101082.78;5137928;27;19931;-36
2022/10/10 07:00:11;;;;;;;;;;;;;;;20.76;48.84;101076.44;5134236;27;20146;-36
2022/10/10 07:02:39;;;;;;;;;;;;;;;20.77;48.77;101083.66;5110136;27;20089;-36
2022/10/10 07:05:07;;;;;;;;;;;;;;;20.77;48.98;101086.41;5135230;27;20495;-36
2022/10/10 07:07:33;;;;;;;;;;;;;;;20.76;48.87;101080.03;5134521;27;20015;-36
2022/10/10 07:09:59;;;;;;;;;;;;;;;20.77;48.95;101084.47;5132674;27;19927;-36
2022/10/10 07:12:24;;;;;;;;;;;;;;;20.76;48.89;101077.25;5134133;27;19930;-36
2022/10/10 07:14:54;;;;;;;;;;;;;;;20.76;48.88;101073.66;5137595;27;19923;-36
2022/10/10 07:17:20;;;;;;;;;;;;;;;20.77;48.89;101086.41;5132489;27;20430;-36
2022/10/10 07:19:45;;;;;;;;;;;;;;;20.77;48.96;101087.25;5134907;27;19931;-36
2022/10/10 07:22:11;;;;;;;;;;;;;;;20.77;48.94;101080.88;5132708;27;19927;-36
2022/10/10 07:24:36;;;;;;;;;;;;;;;20.77;48.87;101081.69;5135180;27;20275;-36
2022/10/10 07:27:02;;;;;;;;;;;;;;;20.76;48.83;101080.03;5135414;27;19968;-36
2022/10/10 07:29:34;;;;;;;;;;;;;;;20.78;48.85;101082.53;5140651;27;19923;-36
2022/10/10 07:31:59;;;;;;;;;;;;;;;20.77;48.94;101087.25;5120421;27;19923;-37
2022/10/10 07:34:25;;;;;;;;;;;;;;;20.76;48.88;101088.31;5133925;27;20422;-37
2022/10/10 07:36:51;;;;;;;;;;;;;;;20.77;48.87;101086.41;5136502;27;20022;-36
2022/10/10 07:39:20;;;;;;;;;;;;;;;20.77;48.88;101089.19;5130498;27;19931;-36
2022/10/10 07:41:46;;;;;;;;;;;;;;;20.78;49.03;101090.84;5118042;27;20018;-37
2022/10/10 07:44:11;;;;;;;;;;;;;;;20.77;48.81;101086.41;5119883;27;19953;-36
2022/10/10 07:46:37;;;;;;;;;;;;;;;20.77;48.69;101090.00;5117873;27;19927;-36
2022/10/10 07:49:03;;;;;;;;;;;;;;;20.77;48.96;101091.94;5116758;27;20414;-36
2022/10/10 07:51:28;;;;;;;;;;;;;;;20.76;49.00;101090.28;5136178;27;19938;-36
2022/10/10 07:53:54;;;;;;;;;;;;;;;20.77;48.93;101091.94;5114177;27;19930;-36
2022/10/10 07:56:19;;;;;;;;;;;;;;;20.76;48.85;101091.09;5138095;27;19934;-36
2022/10/10 07:58:45;;;;;;;;;;;;;;;20.77;49.01;101098.31;5135802;27;19950;-36
2022/10/10 08:01:11;;;;;;;;;;;;;;;20.75;48.93;101095.00;5131674;27;19924;-37
2022/10/10 08:03:36;;;;;;;;;;;;;;;20.77;49.02;101097.50;5135190;27;19923;-37
2022/10/10 08:06:04;;;;;;;;;;;;;;;20.77;48.92;101101.06;5114418;27;20015;-36
2022/10/10 08:08:29;;;;;;;;;;;;;;;20.77;48.95;101098.31;5119180;27;20331;-36
2022/10/10 08:10:56;;;;;;;;;;;;;;;20.78;48.77;101101.91;5109845;27;20386;-37
2022/10/10 08:13:22;;;;;;;;;;;;;;;20.77;48.91;101089.19;5135969;27;19958;-37
2022/10/10 08:15:49;;;;;;;;;;;;;;;20.76;48.85;101099.41;5132013;27;19923;-36
2022/10/10 08:18:14;;;;;;;;;;;;;;;20.77;48.83;101100.25;5134339;27;19966;-37
2022/10/10 08:20:40;;;;;;;;;;;;;;;20.76;48.89;101090.28;5134678;27;19924;-37
2022/10/10 08:23:05;;;;;;;;;;;;;;;20.77;49.00;101103.03;5134226;27;20364;-36
2022/10/10 08:25:31;;;;;;;;;;;;;;;20.76;48.80;101104.94;5138333;27;19946;-36
2022/10/10 08:27:56;;;;;;;;;;;;;;;20.77;48.83;101116.88;5133431;27;19927;-36
2022/10/10 08:30:22;;;;;;;;;;;;;;;20.77;48.98;101116.88;5137499;27;19931;-36
2022/10/10 08:32:48;;;;;;;;;;;;;;;20.77;48.99;101114.91;5138158;27;19931;-36
2022/10/10 08:35:14;;;;;;;;;;;;;;;20.76;48.85;101113.25;5137456;27;19927;-36
2022/10/10 08:37:39;;;;;;;;;;;;;;;20.76;48.78;101113.25;5139317;27;19928;-36
2022/10/10 08:40:05;;;;;;;;;;;;;;;20.77;48.88;101114.09;5133021;27;19934;-36
2022/10/10 08:42:33;;;;;;;;;;;;;;;20.77;48.93;101112.16;5136653;27;20343;-37
2022/10/10 08:45:01;;;;;;;;;;;;;;;20.76;49.03;101115.19;5131648;27;20052;-36
2022/10/10 08:47:31;;;;;;;;;;;;;;;20.77;48.87;101123.22;5113061;28;20022;-36
2022/10/10 08:49:58;;;;;;;;;;;;;;;20.77;48.94;101116.88;5137396;27;20468;-37
2022/10/10 08:52:40;;;;;;;;;;;;;;;20.76;48.85;101123.50;5125100;27;19998;-37
2022/10/10 08:55:07;;;;;;;;;;;;;;;20.77;48.78;101119.63;5120092;27;19986;-37
2022/10/10 08:57:34;;;;;;;;;;;;;;;20.77;48.84;101111.31;5133904;27;20022;-36
2022/10/10 09:00:02;;;;;;;;;;;;;;;20.76;48.90;101115.19;5137770;27;20488;-36
2022/10/10 09:02:37;;;;;;;;;;;;;;;20.77;48.89;101114.09;5137281;27;19928;-36
2022/10/10 09:05:20;;;;;;;;;;;;;;;20.77;48.95;101122.41;5120914;27;19937;-37
2022/10/10 09:07:52;;;;;;;;;;;;;;;20.77;48.97;101122.41;5135924;27;20065;-37
2022/10/10 09:10:22;;;;;;;;;;;;;;;20.77;48.91;101122.41;5138879;27;20435;-36
2022/10/10 09:12:52;;;;;;;;;;;;;;;20.76;48.96;101121.53;5135052;27;19959;-36
2022/10/10 09:18:13;;;;;;;;;;;;;;;20.77;48.98;101122.41;5166847;27;19926;-34
2022/10/10 09:20:47;;;;;;;;;;;;;;;20.75;48.88;101114.34;5138461;27;19954;-34
2022/10/10 09:23:33;;;;;;;;;;;;;;;20.77;48.88;101126.00;5154700;27;20423;-34
2022/10/10 09:26:00;;;;;;;;;;;;;;;20.76;48.87;101127.06;5135014;27;20014;-34
2022/10/10 09:28:35;;;;;;;;;;;;;;;20.78;48.71;101124.03;5153263;27;19974;-34
2022/10/10 09:31:00;;;;;;;;;;;;;;;20.78;48.87;101129.56;5136735;27;19928;-34
2022/10/10 09:33:43;;;;;;;;;;;;;;;20.76;48.81;101126.25;5153534;27;19938;-34
2022/10/10 09:36:09;;;;;;;;;;;;;;;20.77;48.92;101136.22;5132529;27;19977;-37
2022/10/10 09:38:36;;;;;;;;;;;;;;;20.76;48.84;101127.06;5134997;27;20018;-36
2022/10/10 09:41:07;;;;;;;;;;;;;;;20.76;49.02;101129.84;5131826;27;20014;-36
2022/10/10 09:43:33;;;;;;;;;;;;;;;20.76;48.98;101127.06;5153819;27;20446;-36
2022/10/10 09:45:58;;;;;;;;;;;;;;;20.78;48.78;101129.56;5148371;27;19975;-37
2022/10/10 09:48:27;;;;;;;;;;;;;;;20.77;48.92;101127.94;5148294;27;21267;-36
2022/10/10 09:50:52;;;;;;;;;;;;;;;20.76;49.02;101129.84;5149584;27;20074;-36
2022/10/10 09:53:18;;;;;;;;;;;;;;;20.77;49.02;101130.69;5151165;27;19932;-36
2022/10/10 09:55:44;;;;;;;;;;;;;;;20.76;49.08;101132.63;5150303;27;19924;-36
2022/10/10 09:58:29;;;;;;;;;;;;;;;20.77;48.74;101134.28;5131254;27;20366;-36
2022/10/10 10:01:08;;;;;;;;;;;;;;;20.77;48.72;101127.94;5127915;27;19938;-36
2022/10/10 10:03:34;;;;;;;;;;;;;;;20.78;48.86;101129.56;5123680;27;19971;-36
2022/10/10 10:05:59;;;;;;;;;;;;;;;20.77;48.89;101130.69;5153078;27;19960;-36
2022/10/10 10:08:26;;;;;;;;;;;;;;;20.77;48.87;101137.06;5131245;27;20366;-36
2022/10/10 10:10:56;;;;;;;;;;;;;;;20.77;48.76;101136.22;5129231;27;19975;-36
2022/10/10 10:13:24;;;;;;;;;;;;;;;20.76;49.02;101129.84;5145225;27;20421;-36
2022/10/10 10:15:51;;;;;;;;;;;;;;;20.76;48.85;101129.84;5130861;27;20026;-36
2022/10/10 10:20:52;;;;;;;;;;;;;;;20.77;48.79;101128.75;5159247;27;20224;-34
2022/10/10 10:23:21;;;;;;;;;;;;;;;20.76;48.86;101123.50;5149126;27;19974;-37
2022/10/10 10:25:49;;;;;;;;;;;;;;;20.77;48.97;101128.75;5146234;27;20039;-36
2022/10/10 10:28:18;;;;;;;;;;;;;;;20.76;48.92;101132.63;5147297;27;20404;-37
2022/10/10 10:30:45;;;;;;;;;;;;;;;20.77;48.85;101145.38;5145629;27;20344;-36
2022/10/10 10:33:13;;;;;;;;;;;;;;;20.76;48.88;101140.09;5128429;27;20014;-36
2022/10/10 10:38:17;;;;;;;;;;;;;;;20.76;48.84;101135.38;5177715;27;19929;-34
2022/10/10 10:40:47;;;;;;;;;;;;;;;20.76;49.02;101140.91;5165406;27;20001;-34
2022/10/10 10:43:17;;;;;;;;;;;;;;;20.77;48.78;101141.78;5160962;27;19966;-34
2022/10/10 10:45:53;;;;;;;;;;;;;;;20.76;48.85;101140.91;5159541;27;20353;-37
2022/10/10 10:48:28;;;;;;;;;;;;;;;20.77;48.79;101136.22;5163011;27;19961;-37
2022/10/10 10:50:55;;;;;;;;;;;;;;;20.77;49.02;101141.78;5140072;27;20367;-36
2022/10/10 10:53:26;;;;;;;;;;;;;;;20.76;48.73;101134.56;5144526;27;20022;-36
2022/10/10 10:55:59;;;;;;;;;;;;;;;20.77;48.80;101139.00;5157409;27;20010;-37
2022/10/10 10:58:45;;;;;;;;;;;;;;;20.76;49.06;101143.69;5154526;27;19961;-37
2022/10/10 11:01:35;;;;;;;;;;;;;;;20.77;49.00;101141.78;5127719;27;20390;-37
2022/10/10 11:04:41;;;;;;;;;;;;;;;20.76;48.94;101138.16;5123056;27;19931;-36
2022/10/10 11:07:27;;;;;;;;;;;;;;;20.77;49.06;101136.22;5122573;27;20350;-37
2022/10/10 11:09:55;;;;;;;;;;;;;;;20.76;48.86;101138.16;5154925;27;19938;-36
2022/10/10 11:12:26;;;;;;;;;;;;;;;20.77;48.77;101139.81;5130136;27;19970;-36
2022/10/10 11:14:53;;;;;;;;;;;;;;;20.76;49.03;101135.38;5133912;27;20009;-36
2022/10/10 11:17:21;;;;;;;;;;;;;;;20.78;49.01;101148.94;5127895;27;20646;-36
2022/10/10 11:19:55;;;;;;;;;;;;;;;20.76;48.87;101143.69;5134591;27;19923;-36
2022/10/10 11:22:21;;;;;;;;;;;;;;;20.76;48.92;101143.69;5148006;27;20367;-37
2022/10/10 11:25:07;;;;;;;;;;;;;;;20.77;48.93;101136.22;5149146;27;19966;-36
2022/10/10 11:27:33;;;;;;;;;;;;;;;20.76;48.89;101140.09;5133543;27;19954;-36
2022/10/10 11:30:03;;;;;;;;;;;;;;;20.76;49.00;101152.00;5157393;27;20366;-37
2022/10/10 11:32:32;;;;;;;;;;;;;;;20.77;48.92;101133.47;5151947;27;19981;-36
2022/10/10 11:35:15;;;;;;;;;;;;;;;20.77;48.87;101130.69;5151631;27;20335;-37
2022/10/10 11:37:42;;;;;;;;;;;;;;;20.76;48.87;101132.63;5148288;27;20017;-36
2022/10/10 11:40:21;;;;;;;;;;;;;;;20.76;48.94;101138.16;5148293;27;20006;-36
2022/10/10 11:42:49;;;;;;;;;;;;;;;20.77;49.04;101137.06;5150571;27;19977;-37
2022/10/10 11:45:15;;;;;;;;;;;;;;;20.76;48.93;101123.50;5133193;27;20207;-36
2022/10/10 11:47:43;;;;;;;;;;;;;;;20.76;48.94;101135.38;5140508;27;20375;-36
2022/10/10 11:50:29;;;;;;;;;;;;;;;20.77;48.89;101137.06;5136447;27;19923;-36
2022/10/10 11:52:59;;;;;;;;;;;;;;;20.76;48.92;101134.56;5120205;27;20331;-37
2022/10/10 11:55:36;;;;;;;;;;;;;;;20.77;48.92;101128.75;5132660;27;20387;-36
2022/10/10 11:58:07;;;;;;;;;;;;;;;20.77;48.89;101133.47;5114592;27;20044;-36
2022/10/10 12:00:33;;;;;;;;;;;;;;;20.77;48.97;101141.78;5135905;27;20420;-36
2022/10/10 12:02:59;;;;;;;;;;;;;;;20.76;48.81;101138.16;5118546;27;20026;-36
2022/10/10 12:05:25;;;;;;;;;;;;;;;20.77;48.89;101144.53;5137172;27;19924;-37
2022/10/10 12:08:07;;;;;;;;;;;;;;;20.76;48.95;101140.91;5136095;27;20026;-37
2022/10/10 12:10:36;;;;;;;;;;;;;;;20.76;48.85;101146.44;5137160;27;19959;-36
2022/10/10 12:13:09;;;;;;;;;;;;;;;20.76;48.79;101138.16;5127881;27;20186;-36
2022/10/10 12:15:35;;;;;;;;;;;;;;;20.76;48.93;101138.16;5132846;27;19959;-36
2022/10/10 12:18:20;;;;;;;;;;;;;;;20.76;48.93;101140.91;5138281;27;20030;-36
2022/10/10 12:20:46;;;;;;;;;;;;;;;20.77;49.01;101144.53;5139919;27;20030;-36
2022/10/10 12:25:48;;;;;;;;;;;;;;;20.76;48.85;101140.91;5162686;27;20313;-34
2022/10/10 12:28:16;;;;;;;;;;;;;;;20.76;48.94;101140.91;5160089;27;19923;-34
2022/10/10 12:31:01;;;;;;;;;;;;;;;20.76;48.87;101138.16;5154383;27;19931;-34
2022/10/10 12:39:12;;;;;;;;;;;;;;;20.77;48.92;101130.69;5166315;27;19925;-35
2022/10/10 12:44:20;;;;;;;;;;;;;;;20.76;48.94;101127.06;5172470;27;19926;-34
2022/10/10 12:46:49;;;;;;;;;;;;;;;20.77;48.89;101133.47;5151656;27;20021;-36
2022/10/10 12:49:19;;;;;;;;;;;;;;;20.77;48.96;101139.81;5170392;27;20383;-36
2022/10/10 12:51:45;;;;;;;;;;;;;;;20.77;48.91;101133.47;5173971;27;19950;-36
2022/10/10 12:54:19;;;;;;;;;;;;;;;20.77;49.02;101125.16;5166343;27;19962;-36
2022/10/10 12:56:45;;;;;;;;;;;;;;;20.77;49.00;101116.88;5154564;27;19966;-36
2022/10/10 12:59:15;;;;;;;;;;;;;;;20.77;48.89;101122.41;5149720;27;19946;-36